首页
METAR-TAF:

METAR-TAF

机场 :

切博克萨雷, 俄罗斯

纬度: 56-05-24N, 经度: 047-20-50E, 海拔: 171米

当前天气观测

该预报发布于33分钟前的14:00 UTC
风速19节,风向
温度 -1°C
湿度 100%
气压 1004 hPa
能見度: 4800
多云层高于1200英尺, 积雨云.
小阵雪, 高吹雪

METAR: UWKS 231400Z 18010MPS 4800 -SHSN BLSN BKN012CB M01/M01 Q1004 R24/920345 TEMPO 19009G16MPS 1000 SHSN BLSN BKN005CB RMK QFE739

时间: 17:33 (14:33 UTC)

预报

该预报发布于3小时和37分钟前的10:56 UTC
预报有效从23日的 12点(UTC)到 23日的 21点(UTC)
风速14节,风向,有时为23节阵风
能見度: 5000
多云层高于1000英尺, 积雨云.
小阵雪, 高吹雪
短暂存在
从 23日的 12点(UTC)到 23日的 20点(UTC)
风速17节,风向,有时为31节阵风
能見度: 1500
多云层高于500英尺, 积雨云.
阵雪, 高吹雪

TAF: UWKS 231056Z 2312/2321 18007G12MPS 5000 -SHSN BLSN BKN010CB TXM00/2321Z TNM02/2312Z TEMPO 2312/2320 19009G16MPS 1500 SHSN BLSN BKN005CB

超过4000个机场的气象观测和天气预报(METAR&TAF报告)。

可查询的气象台以黄色和红色小点在地图上表示。

将鼠标移到小点上方,可查看气象台名称。

然后点击查看天气观测和预报。

如需切换地图:点击带黑十字的绿色按钮放大地图;点击带横线的绿色按钮缩小地图;或者点击绿色箭头查看邻近地区的地图。


METAR-TAF: